AIC1 KORD-VIDP
Flight info
| Callsign | AIC1 |
|---|---|
| Flight time | N/A |
| Altitude | 29000 |
| Route | MOBLE DCT ADIME DCT DKK DCT SYR DCT ALLEX DCT NICSO/M089F290 DCT 48N050W 48N040W 48N030W 46N020W DCT KOPAS/N0520F330 DCT STG DCT SUSOS/N0519F340 N725 RATAS/N0518F330 DCT DGO/N0515F340 N725 OSPOK/N0511F350 DCT NOLVI DCT ORKUM/N0513F340 DCT ELSAG DCT ALG/N0511F350 DCT PELEN DCT LEVDI DCT NIMAN DCT ARLOS/N0512F370 UN4 SALUN N705 MMA L613 KIVIL N710 TAKRI M720 FYM M872 PMA Y214 SIKNU/N0517F390 Y214 RAPMA DCT MEVDO DCT ALROK DCT DEBIN DCT MIDGU M440 TULBU N881 RASKI L639 LAXOM J61 UUD A347 UKASO UKASO7G |
| Aircraft | B744/H-SDE3FGHIM1M2RWXY/LB1 |
Departure
| Time | 2026-05-04 12:20 |
|---|---|
| Airport | Chicago O'Hare International Airport (KORD) |
Arrival
| Time | N/A |
|---|---|
| Airport | Indira Gandhi International Airport (VIDP) |
| Time | Latitude | Longitude | Altitude | Speed | Heading |
|---|---|---|---|---|---|
| 2026-05-04 12:06 | 41.98206 | -87.90633 | 681 ft | 0 kts | 166° |
| 2026-05-04 12:14 | 41.98280 | -87.90657 | 681 ft | 0 kts | 166° |
| 2026-05-04 12:15 | 41.98275 | -87.90657 | 681 ft | 3 kts | 189° |
| 2026-05-04 12:15 | 41.98196 | -87.90701 | 681 ft | 20 kts | 202° |
| 2026-05-04 12:15 | 41.98069 | -87.90766 | 681 ft | 19 kts | 199° |
| 2026-05-04 12:15 | 41.97944 | -87.90813 | 681 ft | 18 kts | 191° |
| 2026-05-04 12:16 | 41.97908 | -87.90823 | 681 ft | 0 kts | 191° |
| 2026-05-04 12:16 | 41.97900 | -87.90825 | 681 ft | 12 kts | 191° |
| 2026-05-04 12:16 | 41.97721 | -87.90883 | 681 ft | 28 kts | 200° |
| 2026-05-04 12:16 | 41.97550 | -87.90981 | 681 ft | 26 kts | 207° |
| 2026-05-04 12:17 | 41.97411 | -87.91111 | 681 ft | 23 kts | 221° |
| 2026-05-04 12:17 | 41.97276 | -87.91097 | 681 ft | 23 kts | 138° |
| 2026-05-04 12:17 | 41.97150 | -87.90950 | 681 ft | 30 kts | 139° |
| 2026-05-04 12:17 | 41.96999 | -87.90742 | 681 ft | 30 kts | 127° |
| 2026-05-04 12:18 | 41.96864 | -87.90542 | 681 ft | 28 kts | 141° |
| 2026-05-04 12:18 | 41.96717 | -87.90387 | 681 ft | 26 kts | 142° |
| 2026-05-04 12:18 | 41.96585 | -87.90241 | 681 ft | 23 kts | 140° |
| 2026-05-04 12:18 | 41.96463 | -87.90105 | 681 ft | 22 kts | 146° |
| 2026-05-04 12:19 | 41.96349 | -87.90194 | 681 ft | 22 kts | 239° |
| 2026-05-04 12:19 | 41.96343 | -87.90272 | 681 ft | 8 kts | 320° |
| 2026-05-04 12:19 | 41.96571 | -87.90528 | 681 ft | 82 kts | 320° |
| 2026-05-04 12:19 | 41.97205 | -87.91234 | 683 ft | 157 kts | 319° |
| 2026-05-04 12:20 | 41.98214 | -87.92368 | 789 ft | 212 kts | 319° |
| 2026-05-04 12:20 | 41.99459 | -87.93539 | 1386 ft | 222 kts | 331° |
| 2026-05-04 12:20 | 42.01001 | -87.94216 | 1891 ft | 249 kts | 348° |
| 2026-05-04 12:20 | 42.02806 | -87.94307 | 2537 ft | 258 kts | 3° |
| 2026-05-04 12:21 | 42.04540 | -87.93759 | 3441 ft | 269 kts | 18° |
| 2026-05-04 12:21 | 42.06274 | -87.92535 | 3993 ft | 290 kts | 33° |
| 2026-05-04 12:21 | 42.07760 | -87.90700 | 5024 ft | 291 kts | 48° |
| 2026-05-04 12:21 | 42.08874 | -87.88440 | 6094 ft | 292 kts | 62° |
| 2026-05-04 12:22 | 42.09583 | -87.85844 | 6934 ft | 295 kts | 77° |
| 2026-05-04 12:22 | 42.09808 | -87.83107 | 7867 ft | 294 kts | 91° |
| 2026-05-04 12:22 | 42.09556 | -87.80401 | 8729 ft | 292 kts | 106° |
| 2026-05-04 12:22 | 42.08841 | -87.77837 | 9463 ft | 293 kts | 120° |
| 2026-05-04 12:23 | 42.07765 | -87.75448 | 9974 ft | 307 kts | 126° |
| 2026-05-04 12:23 | 42.06524 | -87.72979 | 10248 ft | 331 kts | 127° |
| 2026-05-04 12:23 | 42.05235 | -87.70246 | 10445 ft | 359 kts | 123° |
| 2026-05-04 12:23 | 42.04044 | -87.67151 | 10653 ft | 387 kts | 117° |
| 2026-05-04 12:24 | 42.03008 | -87.63663 | 10852 ft | 415 kts | 111° |
| 2026-05-04 12:24 | 42.02144 | -87.59831 | 11076 ft | 441 kts | 107° |
| 2026-05-04 12:24 | 42.01334 | -87.55857 | 11790 ft | 452 kts | 105° |
| 2026-05-04 12:24 | 42.00615 | -87.51693 | 12595 ft | 459 kts | 103° |
| 2026-05-04 12:25 | 42.00006 | -87.47431 | 13411 ft | 466 kts | 100° |
| 2026-05-04 12:25 | 41.99474 | -87.43095 | 14183 ft | 473 kts | 99° |
| 2026-05-04 12:25 | 41.98927 | -87.38715 | 14968 ft | 478 kts | 100° |
| 2026-05-04 12:25 | 41.98351 | -87.34288 | 15763 ft | 483 kts | 100° |
| 2026-05-04 12:26 | 41.97758 | -87.29824 | 16489 ft | 488 kts | 100° |
| 2026-05-04 12:26 | 41.97155 | -87.25313 | 17199 ft | 492 kts | 101° |
| 2026-05-04 12:26 | 41.96544 | -87.20761 | 17878 ft | 496 kts | 101° |
| 2026-05-04 12:26 | 41.95929 | -87.16188 | 18524 ft | 501 kts | 100° |
| 2026-05-04 12:27 | 41.95315 | -87.11619 | 19138 ft | 505 kts | 100° |
| 2026-05-04 12:27 | 41.94780 | -87.06943 | 19719 ft | 509 kts | 96° |
| 2026-05-04 12:27 | 41.94585 | -87.02108 | 20272 ft | 513 kts | 91° |
| 2026-05-04 12:27 | 41.94592 | -86.97370 | 20829 ft | 516 kts | 88° |
| 2026-05-04 12:28 | 41.94700 | -86.92521 | 21357 ft | 520 kts | 87° |
| 2026-05-04 12:28 | 41.94808 | -86.87642 | 21869 ft | 523 kts | 88° |
| 2026-05-04 12:28 | 41.94890 | -86.82728 | 22364 ft | 527 kts | 88° |
| 2026-05-04 12:28 | 41.94958 | -86.77818 | 22862 ft | 529 kts | 88° |
| 2026-05-04 12:29 | 41.95018 | -86.72847 | 23288 ft | 532 kts | 88° |
| 2026-05-04 12:29 | 41.95076 | -86.67870 | 23702 ft | 535 kts | 88° |
| 2026-05-04 12:29 | 41.95149 | -86.62850 | 24093 ft | 538 kts | 87° |
| 2026-05-04 12:29 | 41.95263 | -86.57815 | 24478 ft | 540 kts | 88° |
| 2026-05-04 12:30 | 41.95338 | -86.52740 | 24837 ft | 543 kts | 88° |
| 2026-05-04 12:30 | 41.95389 | -86.47741 | 25183 ft | 545 kts | 88° |
| 2026-05-04 12:30 | 41.95434 | -86.42566 | 25521 ft | 547 kts | 88° |
| 2026-05-04 12:30 | 41.95475 | -86.37536 | 25873 ft | 548 kts | 88° |
| 2026-05-04 12:31 | 41.95515 | -86.32351 | 26111 ft | 551 kts | 88° |
| 2026-05-04 12:31 | 41.95554 | -86.27248 | 26396 ft | 552 kts | 88° |
| 2026-05-04 12:31 | 41.95638 | -86.22082 | 26725 ft | 552 kts | 85° |
| 2026-05-04 12:31 | 41.95983 | -86.16980 | 27143 ft | 549 kts | 82° |
| 2026-05-04 12:32 | 41.96483 | -86.11901 | 27566 ft | 546 kts | 80° |
| 2026-05-04 12:32 | 41.97608 | -86.01825 | 28277 ft | 544 kts | 79° |
| 2026-05-04 12:32 | 41.98151 | -85.96789 | 28619 ft | 543 kts | 80° |
| 2026-05-04 12:33 | 41.98681 | -85.91756 | 28981 ft | 541 kts | 80° |
| 2026-05-04 12:33 | 41.99200 | -85.86758 | 29308 ft | 540 kts | 80° |
| 2026-05-04 12:33 | 41.99707 | -85.81814 | 29601 ft | 539 kts | 80° |
| 2026-05-04 12:33 | 42.00215 | -85.76829 | 29883 ft | 538 kts | 80° |
| 2026-05-04 12:34 | 42.00747 | -85.71850 | 30184 ft | 536 kts | 79° |
| 2026-05-04 12:34 | 42.01291 | -85.66901 | 30447 ft | 536 kts | 79° |
| 2026-05-04 12:34 | 42.01825 | -85.61915 | 30603 ft | 537 kts | 79° |
| 2026-05-04 12:34 | 42.02346 | -85.56948 | 30760 ft | 537 kts | 79° |
| 2026-05-04 12:35 | 42.02861 | -85.51962 | 30761 ft | 537 kts | 79° |
| 2026-05-04 12:35 | 42.03876 | -85.42003 | 30760 ft | 536 kts | 79° |
| 2026-05-04 12:36 | 42.04878 | -85.32047 | 30761 ft | 537 kts | 79° |
| 2026-05-04 12:36 | 42.05864 | -85.22135 | 30763 ft | 537 kts | 79° |
| 2026-05-04 12:37 | 42.06847 | -85.12164 | 30765 ft | 538 kts | 79° |
| 2026-05-04 12:37 | 42.07822 | -85.02176 | 30764 ft | 538 kts | 80° |
| 2026-05-04 12:38 | 42.08788 | -84.92189 | 30764 ft | 538 kts | 80° |
| 2026-05-04 12:38 | 42.09747 | -84.82187 | 30766 ft | 539 kts | 80° |
| 2026-05-04 12:39 | 42.10700 | -84.72154 | 30767 ft | 539 kts | 80° |
| 2026-05-04 12:39 | 42.11635 | -84.62205 | 30768 ft | 539 kts | 80° |
| 2026-05-04 12:40 | 42.12569 | -84.52183 | 30768 ft | 539 kts | 80° |
| 2026-05-04 12:40 | 42.13494 | -84.42161 | 30766 ft | 538 kts | 80° |
| 2026-05-04 12:41 | 42.14409 | -84.32142 | 30768 ft | 538 kts | 80° |
| 2026-05-04 12:41 | 42.15164 | -84.23810 | 30772 ft | 538 kts | 80° |
| 2026-05-04 12:42 | 42.16063 | -84.13790 | 30776 ft | 538 kts | 80° |
| 2026-05-04 12:42 | 42.16953 | -84.03770 | 30778 ft | 538 kts | 80° |
| 2026-05-04 12:43 | 42.17837 | -83.93710 | 30776 ft | 539 kts | 81° |
| 2026-05-04 12:43 | 42.18710 | -83.83684 | 30772 ft | 538 kts | 81° |
| 2026-05-04 12:44 | 42.19574 | -83.73647 | 30771 ft | 538 kts | 81° |
| 2026-05-04 12:44 | 42.20429 | -83.63623 | 30771 ft | 538 kts | 81° |
| 2026-05-04 12:45 | 42.21271 | -83.53640 | 30779 ft | 538 kts | 81° |
| 2026-05-04 12:45 | 42.22108 | -83.43611 | 30782 ft | 538 kts | 81° |
| 2026-05-04 12:46 | 42.22937 | -83.33573 | 30791 ft | 538 kts | 81° |
| 2026-05-04 12:46 | 42.23347 | -83.28557 | 30963 ft | 538 kts | 81° |
| 2026-05-04 12:46 | 42.23757 | -83.23536 | 31218 ft | 536 kts | 81° |
| 2026-05-04 12:46 | 42.24162 | -83.18534 | 31445 ft | 536 kts | 81° |
| 2026-05-04 12:47 | 42.24565 | -83.13525 | 31619 ft | 536 kts | 81° |
| 2026-05-04 12:47 | 42.24964 | -83.08548 | 31836 ft | 535 kts | 81° |
| 2026-05-04 12:47 | 42.25362 | -83.03546 | 32006 ft | 534 kts | 81° |
| 2026-05-04 12:47 | 42.25758 | -82.98550 | 32150 ft | 535 kts | 80° |
| 2026-05-04 12:48 | 42.26151 | -82.93565 | 32344 ft | 534 kts | 80° |
| 2026-05-04 12:48 | 42.26536 | -82.88651 | 32492 ft | 533 kts | 80° |
| 2026-05-04 12:48 | 42.26925 | -82.83662 | 32618 ft | 533 kts | 80° |
| 2026-05-04 12:48 | 42.27310 | -82.78692 | 32787 ft | 532 kts | 80° |
| 2026-05-04 12:49 | 42.27692 | -82.73731 | 32776 ft | 532 kts | 80° |
| 2026-05-04 12:49 | 42.28452 | -82.63783 | 32773 ft | 532 kts | 80° |
| 2026-05-04 12:50 | 42.29201 | -82.53850 | 32761 ft | 532 kts | 81° |
| 2026-05-04 12:50 | 42.29944 | -82.43897 | 32757 ft | 532 kts | 81° |
| 2026-05-04 12:51 | 42.30677 | -82.33952 | 32755 ft | 531 kts | 81° |
| 2026-05-04 12:51 | 42.31402 | -82.24003 | 32762 ft | 531 kts | 81° |
| 2026-05-04 12:52 | 42.32111 | -82.14143 | 32778 ft | 530 kts | 81° |
| 2026-05-04 12:52 | 42.32817 | -82.04222 | 32775 ft | 531 kts | 81° |
| 2026-05-04 12:53 | 42.33515 | -81.94279 | 32777 ft | 531 kts | 81° |
| 2026-05-04 12:53 | 42.34203 | -81.84350 | 32789 ft | 531 kts | 81° |
| 2026-05-04 12:54 | 42.34884 | -81.74408 | 32792 ft | 531 kts | 81° |
| 2026-05-04 12:54 | 42.35557 | -81.64446 | 32794 ft | 531 kts | 81° |
| 2026-05-04 12:55 | 42.36216 | -81.54560 | 32798 ft | 531 kts | 81° |
| 2026-05-04 12:55 | 42.36872 | -81.44600 | 32798 ft | 531 kts | 81° |
| 2026-05-04 12:56 | 42.37519 | -81.34638 | 32801 ft | 532 kts | 81° |
| 2026-05-04 12:56 | 42.38158 | -81.24662 | 32803 ft | 533 kts | 81° |
| 2026-05-04 12:57 | 42.38788 | -81.14679 | 32805 ft | 533 kts | 81° |
| 2026-05-04 12:57 | 42.39410 | -81.04693 | 32810 ft | 533 kts | 81° |
| 2026-05-04 12:58 | 42.40025 | -80.94689 | 32811 ft | 534 kts | 81° |
| 2026-05-04 12:58 | 42.40628 | -80.84726 | 32811 ft | 533 kts | 81° |
| 2026-05-04 12:59 | 42.41224 | -80.74730 | 32811 ft | 533 kts | 81° |
| 2026-05-04 12:59 | 42.41813 | -80.64716 | 32821 ft | 534 kts | 82° |
| 2026-05-04 13:00 | 42.42394 | -80.54689 | 32824 ft | 534 kts | 82° |
| 2026-05-04 13:00 | 42.42965 | -80.44670 | 32824 ft | 534 kts | 82° |
| 2026-05-04 13:01 | 42.43528 | -80.34634 | 32827 ft | 534 kts | 82° |
| 2026-05-04 13:01 | 42.44082 | -80.24620 | 32828 ft | 535 kts | 82° |
| 2026-05-04 13:02 | 42.44629 | -80.14561 | 32831 ft | 535 kts | 82° |
| 2026-05-04 13:02 | 42.45167 | -80.04509 | 32831 ft | 535 kts | 82° |
| 2026-05-04 13:03 | 42.45695 | -79.94462 | 32839 ft | 535 kts | 82° |
| 2026-05-04 13:03 | 42.46213 | -79.84468 | 32840 ft | 535 kts | 82° |
| 2026-05-04 13:04 | 42.46724 | -79.74409 | 32841 ft | 535 kts | 82° |
| 2026-05-04 13:04 | 42.47266 | -79.64343 | 32842 ft | 536 kts | 82° |
| 2026-05-04 13:05 | 42.47760 | -79.54271 | 32843 ft | 536 kts | 82° |
| 2026-05-04 13:05 | 42.48225 | -79.44271 | 32842 ft | 535 kts | 82° |
| 2026-05-04 13:06 | 42.48689 | -79.34172 | 32841 ft | 535 kts | 82° |
| 2026-05-04 13:06 | 42.49757 | -79.24264 | 32843 ft | 530 kts | 72° |
| 2026-05-04 13:07 | 42.51826 | -79.14704 | 32839 ft | 527 kts | 67° |